KSDF/SDF METAR and TAF weather

Enter ICAO airport designator
Station Type Date Time Source
KSDF METAR 2021/05/13 04:56 UTC NOAA

KSDF 130456Z 02004KT 10SM CLR 12/02 A3034 RMK AO2 SLP273 T01170017 401940089


Station Type Date Time Source
KSDF Decoded METAR 2021/05/13 04:56 UTC NOAA

STANDIFORD FIELD, KY, United States (KSDF) 38-11N 085-44W 146M
May 13, 2021 - 12:56 AM EDT / 2021.05.13 0456 UTC
Wind: from the NNE (020 degrees) at 5 MPH (4 KT):0
Visibility: 10 mile(s):0
Sky conditions: clear
Temperature: 53.1 F (11.7 C)
Dew Point: 35.1 F (1.7 C)
Relative Humidity: 50%
Pressure (altimeter): 30.34 in. Hg (1027 hPa)
ob: KSDF 130456Z 02004KT 10SM CLR 12/02 A3034 RMK AO2 SLP273 T01170017 401940089
cycle: 5

Station Type Date Time Source
KSDF TAF 2021/05/13 06:24 UTC NOAA

TAF KSDF 130521Z 1306/1412 04006KT P6SM SKC

Example: see airport list